sensor_id;sensor_type;location;lat;lon;timestamp;temperature;humidity
6270;DHT22;3168;51.684;6.954;2023-07-29T00:00:37;19.70;99.90
6270;DHT22;3168;51.684;6.954;2023-07-29T00:03:03;19.70;99.90
6270;DHT22;3168;51.684;6.954;2023-07-29T00:05:29;19.50;99.90
6270;DHT22;3168;51.684;6.954;2023-07-29T00:07:55;19.50;99.90
6270;DHT22;3168;51.684;6.954;2023-07-29T00:10:20;19.50;99.90
6270;DHT22;3168;51.684;6.954;2023-07-29T00:12:46;19.30;99.90
6270;DHT22;3168;51.684;6.954;2023-07-29T00:15:12;19.40;99.90
6270;DHT22;3168;51.684;6.954;2023-07-29T00:17:38;19.40;99.90
6270;DHT22;3168;51.684;6.954;2023-07-29T00:20:05;19.40;99.90
6270;DHT22;3168;51.684;6.954;2023-07-29T00:22:31;19.20;99.90
6270;DHT22;3168;51.684;6.954;2023-07-29T00:24:57;19.30;99.90
6270;DHT22;3168;51.684;6.954;2023-07-29T00:27:23;19.30;99.90
6270;DHT22;3168;51.684;6.954;2023-07-29T00:29:49;19.30;99.90
6270;DHT22;3168;51.684;6.954;2023-07-29T00:32:14;19.30;99.90
6270;DHT22;3168;51.684;6.954;2023-07-29T00:34:40;19.20;99.90
6270;DHT22;3168;51.684;6.954;2023-07-29T00:37:06;19.20;99.90
6270;DHT22;3168;51.684;6.954;2023-07-29T00:39:32;19.20;99.90
6270;DHT22;3168;51.684;6.954;2023-07-29T00:41:58;19.20;99.90
6270;DHT22;3168;51.684;6.954;2023-07-29T00:44:23;19.10;99.90
6270;DHT22;3168;51.684;6.954;2023-07-29T00:46:52;19.10;99.90
6270;DHT22;3168;51.684;6.954;2023-07-29T00:49:16;19.00;99.90
6270;DHT22;3168;51.684;6.954;2023-07-29T00:51:42;19.10;99.90
6270;DHT22;3168;51.684;6.954;2023-07-29T00:54:08;19.00;99.90
6270;DHT22;3168;51.684;6.954;2023-07-29T00:56:34;19.00;99.90
6270;DHT22;3168;51.684;6.954;2023-07-29T00:58:59;19.00;99.90
6270;DHT22;3168;51.684;6.954;2023-07-29T01:01:25;19.00;99.90
6270;DHT22;3168;51.684;6.954;2023-07-29T01:03:51;19.00;99.90
6270;DHT22;3168;51.684;6.954;2023-07-29T01:09:02;19.20;99.90
6270;DHT22;3168;51.684;6.954;2023-07-29T01:11:40;19.20;99.90
6270;DHT22;3168;51.684;6.954;2023-07-29T01:14:04;19.20;99.90
6270;DHT22;3168;51.684;6.954;2023-07-29T01:16:41;19.20;99.90
6270;DHT22;3168;51.684;6.954;2023-07-29T01:19:05;19.20;99.90
6270;DHT22;3168;51.684;6.954;2023-07-29T01:21:31;19.10;99.90
6270;DHT22;3168;51.684;6.954;2023-07-29T01:23:58;19.10;99.90
6270;DHT22;3168;51.684;6.954;2023-07-29T01:26:23;19.20;99.90
6270;DHT22;3168;51.684;6.954;2023-07-29T01:28:49;19.20;99.90
6270;DHT22;3168;51.684;6.954;2023-07-29T01:31:23;19.30;99.90
6270;DHT22;3168;51.684;6.954;2023-07-29T01:33:48;19.20;99.90
6270;DHT22;3168;51.684;6.954;2023-07-29T01:36:13;19.30;99.90
6270;DHT22;3168;51.684;6.954;2023-07-29T01:38:38;19.40;99.90
6270;DHT22;3168;51.684;6.954;2023-07-29T01:41:04;19.20;99.90
6270;DHT22;3168;51.684;6.954;2023-07-29T01:43:29;19.30;99.90
6270;DHT22;3168;51.684;6.954;2023-07-29T01:45:55;19.40;99.90
6270;DHT22;3168;51.684;6.954;2023-07-29T01:48:20;19.30;99.90
6270;DHT22;3168;51.684;6.954;2023-07-29T01:50:46;19.30;99.90
6270;DHT22;3168;51.684;6.954;2023-07-29T01:53:12;19.50;99.90
6270;DHT22;3168;51.684;6.954;2023-07-29T01:55:38;19.50;99.90
6270;DHT22;3168;51.684;6.954;2023-07-29T01:58:04;19.40;99.90
6270;DHT22;3168;51.684;6.954;2023-07-29T02:00:30;19.50;99.90
6270;DHT22;3168;51.684;6.954;2023-07-29T02:02:56;19.50;99.90
6270;DHT22;3168;51.684;6.954;2023-07-29T02:05:21;19.50;99.90
6270;DHT22;3168;51.684;6.954;2023-07-29T02:07:47;19.50;99.90
6270;DHT22;3168;51.684;6.954;2023-07-29T02:10:13;19.50;99.90
6270;DHT22;3168;51.684;6.954;2023-07-29T02:12:39;19.60;99.90
6270;DHT22;3168;51.684;6.954;2023-07-29T02:15:07;19.60;99.90
6270;DHT22;3168;51.684;6.954;2023-07-29T02:17:33;19.50;99.90
6270;DHT22;3168;51.684;6.954;2023-07-29T02:19:59;19.50;99.90
6270;DHT22;3168;51.684;6.954;2023-07-29T02:22:25;19.50;99.90
6270;DHT22;3168;51.684;6.954;2023-07-29T02:24:51;19.60;99.90
6270;DHT22;3168;51.684;6.954;2023-07-29T02:27:17;19.70;99.90
6270;DHT22;3168;51.684;6.954;2023-07-29T02:29:43;19.70;99.90
6270;DHT22;3168;51.684;6.954;2023-07-29T02:32:08;19.70;99.90
6270;DHT22;3168;51.684;6.954;2023-07-29T02:34:34;19.70;99.90
6270;DHT22;3168;51.684;6.954;2023-07-29T02:37:00;19.70;99.90
6270;DHT22;3168;51.684;6.954;2023-07-29T02:39:26;19.60;99.90
6270;DHT22;3168;51.684;6.954;2023-07-29T02:41:52;19.60;99.90
6270;DHT22;3168;51.684;6.954;2023-07-29T02:44:19;19.60;99.90
6270;DHT22;3168;51.684;6.954;2023-07-29T02:46:44;19.60;99.90
6270;DHT22;3168;51.684;6.954;2023-07-29T02:49:10;19.60;99.90
6270;DHT22;3168;51.684;6.954;2023-07-29T02:51:36;19.60;99.90
6270;DHT22;3168;51.684;6.954;2023-07-29T02:54:02;19.70;99.90
6270;DHT22;3168;51.684;6.954;2023-07-29T02:56:28;19.70;99.90
6270;DHT22;3168;51.684;6.954;2023-07-29T02:58:54;19.70;99.90
6270;DHT22;3168;51.684;6.954;2023-07-29T03:01:20;19.70;99.90
6270;DHT22;3168;51.684;6.954;2023-07-29T03:03:45;19.70;99.90
6270;DHT22;3168;51.684;6.954;2023-07-29T03:06:13;19.70;99.90
6270;DHT22;3168;51.684;6.954;2023-07-29T03:08:38;19.70;99.90
6270;DHT22;3168;51.684;6.954;2023-07-29T03:11:06;19.60;99.90
6270;DHT22;3168;51.684;6.954;2023-07-29T03:13:31;19.70;99.90
6270;DHT22;3168;51.684;6.954;2023-07-29T03:16:04;19.70;99.90
6270;DHT22;3168;51.684;6.954;2023-07-29T03:18:22;19.70;99.90
6270;DHT22;3168;51.684;6.954;2023-07-29T03:20:48;19.70;99.90
6270;DHT22;3168;51.684;6.954;2023-07-29T03:23:14;19.70;99.90
6270;DHT22;3168;51.684;6.954;2023-07-29T03:25:40;19.60;99.90
6270;DHT22;3168;51.684;6.954;2023-07-29T03:28:06;19.70;99.90
6270;DHT22;3168;51.684;6.954;2023-07-29T03:30:32;19.60;99.90
6270;DHT22;3168;51.684;6.954;2023-07-29T03:32:58;19.60;99.90
6270;DHT22;3168;51.684;6.954;2023-07-29T03:35:24;19.40;99.90
6270;DHT22;3168;51.684;6.954;2023-07-29T03:37:50;19.50;99.90
6270;DHT22;3168;51.684;6.954;2023-07-29T03:40:16;19.50;99.90
6270;DHT22;3168;51.684;6.954;2023-07-29T03:42:42;19.70;99.90
6270;DHT22;3168;51.684;6.954;2023-07-29T03:45:08;19.70;99.90
6270;DHT22;3168;51.684;6.954;2023-07-29T03:47:34;19.60;99.90
6270;DHT22;3168;51.684;6.954;2023-07-29T03:50:00;19.80;99.90
6270;DHT22;3168;51.684;6.954;2023-07-29T03:52:25;19.70;99.90
6270;DHT22;3168;51.684;6.954;2023-07-29T03:54:51;19.70;99.90
6270;DHT22;3168;51.684;6.954;2023-07-29T03:57:17;19.60;99.90
6270;DHT22;3168;51.684;6.954;2023-07-29T03:59:44;19.40;99.90
6270;DHT22;3168;51.684;6.954;2023-07-29T04:02:09;19.40;99.90
6270;DHT22;3168;51.684;6.954;2023-07-29T04:04:35;19.30;99.90
6270;DHT22;3168;51.684;6.954;2023-07-29T04:07:01;19.20;99.90
6270;DHT22;3168;51.684;6.954;2023-07-29T04:09:27;19.20;99.90
6270;DHT22;3168;51.684;6.954;2023-07-29T04:11:53;19.10;99.90
6270;DHT22;3168;51.684;6.954;2023-07-29T04:14:19;19.00;99.90
6270;DHT22;3168;51.684;6.954;2023-07-29T04:16:45;19.00;99.90
6270;DHT22;3168;51.684;6.954;2023-07-29T04:19:11;18.90;99.90
6270;DHT22;3168;51.684;6.954;2023-07-29T04:21:37;18.80;99.90
6270;DHT22;3168;51.684;6.954;2023-07-29T04:24:03;18.70;99.90
6270;DHT22;3168;51.684;6.954;2023-07-29T04:26:29;18.70;99.90
6270;DHT22;3168;51.684;6.954;2023-07-29T04:28:55;18.70;99.90
6270;DHT22;3168;51.684;6.954;2023-07-29T04:31:20;18.70;99.90
6270;DHT22;3168;51.684;6.954;2023-07-29T04:33:46;18.60;99.90
6270;DHT22;3168;51.684;6.954;2023-07-29T04:36:12;18.60;99.90
6270;DHT22;3168;51.684;6.954;2023-07-29T04:38:38;18.60;99.90
6270;DHT22;3168;51.684;6.954;2023-07-29T04:41:04;18.60;99.90
6270;DHT22;3168;51.684;6.954;2023-07-29T04:43:31;18.60;99.90
6270;DHT22;3168;51.684;6.954;2023-07-29T04:45:56;18.60;99.90
6270;DHT22;3168;51.684;6.954;2023-07-29T04:48:22;18.60;99.90
6270;DHT22;3168;51.684;6.954;2023-07-29T04:50:47;18.60;99.90
6270;DHT22;3168;51.684;6.954;2023-07-29T04:53:13;18.60;99.90
6270;DHT22;3168;51.684;6.954;2023-07-29T04:55:41;18.50;99.90
6270;DHT22;3168;51.684;6.954;2023-07-29T04:58:05;18.50;99.90
6270;DHT22;3168;51.684;6.954;2023-07-29T05:00:31;18.50;99.90
6270;DHT22;3168;51.684;6.954;2023-07-29T05:02:56;18.50;99.90
6270;DHT22;3168;51.684;6.954;2023-07-29T05:05:22;18.50;99.90
6270;DHT22;3168;51.684;6.954;2023-07-29T05:07:48;18.50;99.90
6270;DHT22;3168;51.684;6.954;2023-07-29T05:10:14;18.50;99.90
6270;DHT22;3168;51.684;6.954;2023-07-29T05:12:40;18.40;99.90
6270;DHT22;3168;51.684;6.954;2023-07-29T05:15:06;18.50;99.90
6270;DHT22;3168;51.684;6.954;2023-07-29T05:17:32;18.40;99.90
6270;DHT22;3168;51.684;6.954;2023-07-29T05:19:58;18.40;99.90
6270;DHT22;3168;51.684;6.954;2023-07-29T05:22:24;18.30;99.90
6270;DHT22;3168;51.684;6.954;2023-07-29T05:24:50;18.40;99.90
6270;DHT22;3168;51.684;6.954;2023-07-29T05:27:16;18.40;99.90
6270;DHT22;3168;51.684;6.954;2023-07-29T05:29:42;18.40;99.90
6270;DHT22;3168;51.684;6.954;2023-07-29T05:32:07;18.50;99.90
6270;DHT22;3168;51.684;6.954;2023-07-29T05:34:33;18.50;99.90
6270;DHT22;3168;51.684;6.954;2023-07-29T05:37:00;18.50;99.90
6270;DHT22;3168;51.684;6.954;2023-07-29T05:39:26;18.50;99.90
6270;DHT22;3168;51.684;6.954;2023-07-29T05:41:52;18.50;99.90
6270;DHT22;3168;51.684;6.954;2023-07-29T05:44:18;18.60;99.90
6270;DHT22;3168;51.684;6.954;2023-07-29T05:46:43;18.60;99.90
6270;DHT22;3168;51.684;6.954;2023-07-29T05:49:09;18.50;99.90
6270;DHT22;3168;51.684;6.954;2023-07-29T05:51:35;18.50;99.90
6270;DHT22;3168;51.684;6.954;2023-07-29T05:54:01;18.40;99.90
6270;DHT22;3168;51.684;6.954;2023-07-29T05:56:27;18.30;99.90
6270;DHT22;3168;51.684;6.954;2023-07-29T05:58:52;18.40;99.90
6270;DHT22;3168;51.684;6.954;2023-07-29T06:01:18;18.50;99.90
6270;DHT22;3168;51.684;6.954;2023-07-29T06:03:44;18.30;99.90
6270;DHT22;3168;51.684;6.954;2023-07-29T06:06:10;18.40;99.90
6270;DHT22;3168;51.684;6.954;2023-07-29T06:08:36;18.40;99.90
6270;DHT22;3168;51.684;6.954;2023-07-29T06:11:01;18.40;99.90
6270;DHT22;3168;51.684;6.954;2023-07-29T06:13:27;18.30;99.50
6270;DHT22;3168;51.684;6.954;2023-07-29T06:15:53;18.30;96.10
6270;DHT22;3168;51.684;6.954;2023-07-29T06:18:19;18.40;92.80
6270;DHT22;3168;51.684;6.954;2023-07-29T06:20:45;18.30;81.30
6270;DHT22;3168;51.684;6.954;2023-07-29T06:23:11;18.20;80.70
6270;DHT22;3168;51.684;6.954;2023-07-29T06:25:36;18.30;78.80
6270;DHT22;3168;51.684;6.954;2023-07-29T06:28:02;18.20;70.40
6270;DHT22;3168;51.684;6.954;2023-07-29T06:30:28;18.20;75.00
6270;DHT22;3168;51.684;6.954;2023-07-29T06:32:54;18.20;72.90
6270;DHT22;3168;51.684;6.954;2023-07-29T06:35:20;18.20;69.60
6270;DHT22;3168;51.684;6.954;2023-07-29T06:37:46;18.20;68.50
6270;DHT22;3168;51.684;6.954;2023-07-29T06:40:11;18.30;60.60
6270;DHT22;3168;51.684;6.954;2023-07-29T06:42:37;18.40;56.10
6270;DHT22;3168;51.684;6.954;2023-07-29T06:45:05;18.50;46.80
6270;DHT22;3168;51.684;6.954;2023-07-29T06:47:31;18.40;40.30
6270;DHT22;3168;51.684;6.954;2023-07-29T06:49:56;18.30;41.30
6270;DHT22;3168;51.684;6.954;2023-07-29T06:52:22;18.40;47.10
6270;DHT22;3168;51.684;6.954;2023-07-29T06:54:48;18.40;42.90
6270;DHT22;3168;51.684;6.954;2023-07-29T06:57:14;18.50;40.10
6270;DHT22;3168;51.684;6.954;2023-07-29T06:59:40;18.50;29.00
6270;DHT22;3168;51.684;6.954;2023-07-29T07:02:06;18.60;36.70
6270;DHT22;3168;51.684;6.954;2023-07-29T07:04:31;18.60;29.30
6270;DHT22;3168;51.684;6.954;2023-07-29T07:06:58;18.50;23.60
6270;DHT22;3168;51.684;6.954;2023-07-29T07:09:24;18.70;27.40
6270;DHT22;3168;51.684;6.954;2023-07-29T07:11:49;18.70;27.30
6270;DHT22;3168;51.684;6.954;2023-07-29T07:14:15;18.70;19.90
6270;DHT22;3168;51.684;6.954;2023-07-29T07:16:41;18.80;13.40
6270;DHT22;3168;51.684;6.954;2023-07-29T07:19:07;18.80;8.60
6270;DHT22;3168;51.684;6.954;2023-07-29T07:21:33;18.90;11.40
6270;DHT22;3168;51.684;6.954;2023-07-29T07:23:59;19.20;3.20
6270;DHT22;3168;51.684;6.954;2023-07-29T07:26:25;19.20;3.30
6270;DHT22;3168;51.684;6.954;2023-07-29T07:28:51;19.30;7.40
6270;DHT22;3168;51.684;6.954;2023-07-29T07:31:17;19.30;1.00
6270;DHT22;3168;51.684;6.954;2023-07-29T07:39:11;19.40;1.00
6270;DHT22;3168;51.684;6.954;2023-07-29T07:41:38;19.50;1.00
6270;DHT22;3168;51.684;6.954;2023-07-29T07:44:03;19.50;1.00
6270;DHT22;3168;51.684;6.954;2023-07-29T07:46:29;19.60;1.00
6270;DHT22;3168;51.684;6.954;2023-07-29T07:48:55;19.70;1.00
6270;DHT22;3168;51.684;6.954;2023-07-29T07:51:21;19.90;1.00
6270;DHT22;3168;51.684;6.954;2023-07-29T07:53:48;19.90;1.00
6270;DHT22;3168;51.684;6.954;2023-07-29T07:56:12;19.90;1.00
6270;DHT22;3168;51.684;6.954;2023-07-29T07:58:38;20.00;1.00
6270;DHT22;3168;51.684;6.954;2023-07-29T08:01:04;20.10;1.00
6270;DHT22;3168;51.684;6.954;2023-07-29T08:03:30;19.90;1.00
6270;DHT22;3168;51.684;6.954;2023-07-29T08:05:55;20.10;1.00
6270;DHT22;3168;51.684;6.954;2023-07-29T08:08:21;20.20;1.00
6270;DHT22;3168;51.684;6.954;2023-07-29T08:10:47;20.30;1.00
6270;DHT22;3168;51.684;6.954;2023-07-29T08:13:13;20.40;1.00
6270;DHT22;3168;51.684;6.954;2023-07-29T08:15:38;20.40;1.00
6270;DHT22;3168;51.684;6.954;2023-07-29T08:18:04;20.40;1.00
6270;DHT22;3168;51.684;6.954;2023-07-29T08:20:30;20.50;1.00
6270;DHT22;3168;51.684;6.954;2023-07-29T08:22:56;20.30;1.00
6270;DHT22;3168;51.684;6.954;2023-07-29T08:25:21;20.30;1.00
6270;DHT22;3168;51.684;6.954;2023-07-29T08:27:47;20.50;1.00
6270;DHT22;3168;51.684;6.954;2023-07-29T08:30:13;20.70;1.00
6270;DHT22;3168;51.684;6.954;2023-07-29T08:32:39;21.00;1.00
6270;DHT22;3168;51.684;6.954;2023-07-29T08:35:05;21.10;1.00
6270;DHT22;3168;51.684;6.954;2023-07-29T08:37:31;21.20;1.00
6270;DHT22;3168;51.684;6.954;2023-07-29T08:39:57;21.20;1.00
6270;DHT22;3168;51.684;6.954;2023-07-29T08:42:23;21.00;1.00
6270;DHT22;3168;51.684;6.954;2023-07-29T08:44:49;21.10;1.00
6270;DHT22;3168;51.684;6.954;2023-07-29T08:47:15;21.10;1.00
6270;DHT22;3168;51.684;6.954;2023-07-29T08:49:41;21.00;1.00
6270;DHT22;3168;51.684;6.954;2023-07-29T08:52:07;21.00;1.00
6270;DHT22;3168;51.684;6.954;2023-07-29T08:54:33;20.90;1.00
6270;DHT22;3168;51.684;6.954;2023-07-29T08:56:59;21.10;1.00
6270;DHT22;3168;51.684;6.954;2023-07-29T08:59:25;21.20;1.00
6270;DHT22;3168;51.684;6.954;2023-07-29T09:01:50;21.30;1.00
6270;DHT22;3168;51.684;6.954;2023-07-29T09:04:17;21.50;1.00
6270;DHT22;3168;51.684;6.954;2023-07-29T09:06:43;21.50;1.00
6270;DHT22;3168;51.684;6.954;2023-07-29T09:09:08;21.50;1.00
6270;DHT22;3168;51.684;6.954;2023-07-29T09:11:35;21.60;1.00
6270;DHT22;3168;51.684;6.954;2023-07-29T09:14:01;21.60;1.00
6270;DHT22;3168;51.684;6.954;2023-07-29T09:16:26;21.80;1.00
6270;DHT22;3168;51.684;6.954;2023-07-29T09:18:52;21.70;1.00
6270;DHT22;3168;51.684;6.954;2023-07-29T09:21:25;21.70;1.00
6270;DHT22;3168;51.684;6.954;2023-07-29T09:23:51;21.90;1.00
6270;DHT22;3168;51.684;6.954;2023-07-29T09:26:23;21.70;1.00
6270;DHT22;3168;51.684;6.954;2023-07-29T09:28:51;21.90;1.00
6270;DHT22;3168;51.684;6.954;2023-07-29T09:31:18;21.80;1.00
6270;DHT22;3168;51.684;6.954;2023-07-29T09:33:40;21.80;1.00
6270;DHT22;3168;51.684;6.954;2023-07-29T09:36:08;21.80;1.00
6270;DHT22;3168;51.684;6.954;2023-07-29T09:38:34;21.90;1.00
6270;DHT22;3168;51.684;6.954;2023-07-29T09:41:00;22.10;1.00
6270;DHT22;3168;51.684;6.954;2023-07-29T09:43:28;22.10;1.00
6270;DHT22;3168;51.684;6.954;2023-07-29T09:45:51;21.60;1.00
6270;DHT22;3168;51.684;6.954;2023-07-29T09:48:19;21.40;1.00
6270;DHT22;3168;51.684;6.954;2023-07-29T09:50:43;21.40;1.00
6270;DHT22;3168;51.684;6.954;2023-07-29T09:53:09;21.40;1.00
6270;DHT22;3168;51.684;6.954;2023-07-29T09:55:34;21.40;1.00
6270;DHT22;3168;51.684;6.954;2023-07-29T09:58:01;21.40;1.00
6270;DHT22;3168;51.684;6.954;2023-07-29T10:00:28;21.30;1.00
6270;DHT22;3168;51.684;6.954;2023-07-29T10:02:54;21.40;1.00
6270;DHT22;3168;51.684;6.954;2023-07-29T10:05:20;21.60;1.00
6270;DHT22;3168;51.684;6.954;2023-07-29T10:07:45;21.80;1.00
6270;DHT22;3168;51.684;6.954;2023-07-29T10:10:11;21.80;1.00
6270;DHT22;3168;51.684;6.954;2023-07-29T10:12:39;22.10;1.00
6270;DHT22;3168;51.684;6.954;2023-07-29T10:15:03;22.00;1.00
6270;DHT22;3168;51.684;6.954;2023-07-29T10:17:29;21.60;1.00
6270;DHT22;3168;51.684;6.954;2023-07-29T10:19:55;21.90;1.00
6270;DHT22;3168;51.684;6.954;2023-07-29T10:22:20;22.00;1.00
6270;DHT22;3168;51.684;6.954;2023-07-29T10:24:46;22.00;1.00
6270;DHT22;3168;51.684;6.954;2023-07-29T10:27:12;22.20;1.00
6270;DHT22;3168;51.684;6.954;2023-07-29T10:29:38;22.00;1.00
6270;DHT22;3168;51.684;6.954;2023-07-29T10:32:05;22.10;1.00
6270;DHT22;3168;51.684;6.954;2023-07-29T10:34:31;22.20;1.00
6270;DHT22;3168;51.684;6.954;2023-07-29T10:36:56;22.30;1.00
6270;DHT22;3168;51.684;6.954;2023-07-29T10:39:24;22.10;1.00
6270;DHT22;3168;51.684;6.954;2023-07-29T10:42:02;22.20;1.00
6270;DHT22;3168;51.684;6.954;2023-07-29T10:44:46;22.10;1.00
6270;DHT22;3168;51.684;6.954;2023-07-29T10:47:14;22.10;1.00
6270;DHT22;3168;51.684;6.954;2023-07-29T10:49:40;22.20;1.00
6270;DHT22;3168;51.684;6.954;2023-07-29T10:52:06;22.30;1.00
6270;DHT22;3168;51.684;6.954;2023-07-29T10:54:41;22.20;1.00
6270;DHT22;3168;51.684;6.954;2023-07-29T10:56:59;22.20;1.00
6270;DHT22;3168;51.684;6.954;2023-07-29T10:59:31;22.20;1.00
6270;DHT22;3168;51.684;6.954;2023-07-29T11:01:57;22.20;1.00
6270;DHT22;3168;51.684;6.954;2023-07-29T11:04:25;22.30;1.00
6270;DHT22;3168;51.684;6.954;2023-07-29T11:09:58;22.80;1.00
6270;DHT22;3168;51.684;6.954;2023-07-29T11:12:36;22.70;1.00
6270;DHT22;3168;51.684;6.954;2023-07-29T11:15:11;22.50;1.00
6270;DHT22;3168;51.684;6.954;2023-07-29T11:17:31;22.70;1.00
6270;DHT22;3168;51.684;6.954;2023-07-29T11:19:56;22.90;1.00
6270;DHT22;3168;51.684;6.954;2023-07-29T11:22:22;22.80;1.00
6270;DHT22;3168;51.684;6.954;2023-07-29T11:24:48;22.80;1.00
6270;DHT22;3168;51.684;6.954;2023-07-29T11:27:14;22.60;1.00
6270;DHT22;3168;51.684;6.954;2023-07-29T11:29:40;22.50;1.00
6270;DHT22;3168;51.684;6.954;2023-07-29T11:32:06;22.70;1.00
6270;DHT22;3168;51.684;6.954;2023-07-29T11:34:32;22.70;1.00
6270;DHT22;3168;51.684;6.954;2023-07-29T11:36:58;22.70;1.00
6270;DHT22;3168;51.684;6.954;2023-07-29T11:39:24;22.70;1.00
6270;DHT22;3168;51.684;6.954;2023-07-29T11:41:49;22.70;1.00
6270;DHT22;3168;51.684;6.954;2023-07-29T11:44:16;22.90;1.00
6270;DHT22;3168;51.684;6.954;2023-07-29T11:46:42;23.20;1.00
6270;DHT22;3168;51.684;6.954;2023-07-29T11:49:08;23.60;1.00
6270;DHT22;3168;51.684;6.954;2023-07-29T11:51:34;23.50;1.00
6270;DHT22;3168;51.684;6.954;2023-07-29T11:53:59;23.60;1.00
6270;DHT22;3168;51.684;6.954;2023-07-29T11:56:25;23.60;1.00
6270;DHT22;3168;51.684;6.954;2023-07-29T11:58:51;23.70;1.00
6270;DHT22;3168;51.684;6.954;2023-07-29T12:01:17;23.70;1.00
6270;DHT22;3168;51.684;6.954;2023-07-29T12:03:42;23.50;1.00
6270;DHT22;3168;51.684;6.954;2023-07-29T12:06:08;23.60;1.00
6270;DHT22;3168;51.684;6.954;2023-07-29T12:08:34;23.80;1.00
6270;DHT22;3168;51.684;6.954;2023-07-29T12:11:00;23.90;1.00
6270;DHT22;3168;51.684;6.954;2023-07-29T12:13:25;23.80;1.00
6270;DHT22;3168;51.684;6.954;2023-07-29T12:15:52;23.80;1.00
6270;DHT22;3168;51.684;6.954;2023-07-29T12:18:18;23.80;1.00
6270;DHT22;3168;51.684;6.954;2023-07-29T12:20:43;23.70;1.00
6270;DHT22;3168;51.684;6.954;2023-07-29T12:23:09;23.40;1.00
6270;DHT22;3168;51.684;6.954;2023-07-29T12:25:35;23.30;1.00
6270;DHT22;3168;51.684;6.954;2023-07-29T12:28:04;23.50;1.00
6270;DHT22;3168;51.684;6.954;2023-07-29T12:30:29;23.60;1.00
6270;DHT22;3168;51.684;6.954;2023-07-29T12:32:55;23.50;1.00
6270;DHT22;3168;51.684;6.954;2023-07-29T12:35:20;23.40;1.00
6270;DHT22;3168;51.684;6.954;2023-07-29T12:37:46;23.50;1.00
6270;DHT22;3168;51.684;6.954;2023-07-29T12:40:22;23.70;1.00
6270;DHT22;3168;51.684;6.954;2023-07-29T12:42:47;24.00;1.00
6270;DHT22;3168;51.684;6.954;2023-07-29T12:45:14;23.90;1.00
6270;DHT22;3168;51.684;6.954;2023-07-29T12:47:38;23.70;1.00
6270;DHT22;3168;51.684;6.954;2023-07-29T12:50:05;23.80;1.00
6270;DHT22;3168;51.684;6.954;2023-07-29T12:52:31;23.80;1.00
6270;DHT22;3168;51.684;6.954;2023-07-29T12:54:57;23.70;1.00
6270;DHT22;3168;51.684;6.954;2023-07-29T12:57:23;23.70;1.00
6270;DHT22;3168;51.684;6.954;2023-07-29T12:59:49;23.60;1.00
6270;DHT22;3168;51.684;6.954;2023-07-29T13:02:15;23.60;1.00
6270;DHT22;3168;51.684;6.954;2023-07-29T13:04:40;23.60;1.00
6270;DHT22;3168;51.684;6.954;2023-07-29T13:07:06;24.00;1.00
6270;DHT22;3168;51.684;6.954;2023-07-29T13:09:32;24.10;1.00
6270;DHT22;3168;51.684;6.954;2023-07-29T13:11:58;24.10;1.00
6270;DHT22;3168;51.684;6.954;2023-07-29T13:14:23;24.00;1.00
6270;DHT22;3168;51.684;6.954;2023-07-29T13:16:49;24.00;1.00
6270;DHT22;3168;51.684;6.954;2023-07-29T13:19:15;24.00;1.00
6270;DHT22;3168;51.684;6.954;2023-07-29T13:21:41;23.70;1.00
6270;DHT22;3168;51.684;6.954;2023-07-29T13:24:06;23.60;1.00
6270;DHT22;3168;51.684;6.954;2023-07-29T13:26:32;23.60;1.00
6270;DHT22;3168;51.684;6.954;2023-07-29T13:28:58;23.40;1.00
6270;DHT22;3168;51.684;6.954;2023-07-29T13:31:24;23.30;1.00
6270;DHT22;3168;51.684;6.954;2023-07-29T13:33:50;22.90;1.00
6270;DHT22;3168;51.684;6.954;2023-07-29T13:36:16;22.50;1.00
6270;DHT22;3168;51.684;6.954;2023-07-29T13:38:41;22.20;1.00
6270;DHT22;3168;51.684;6.954;2023-07-29T13:41:07;22.00;1.00
6270;DHT22;3168;51.684;6.954;2023-07-29T13:43:33;21.50;1.00
6270;DHT22;3168;51.684;6.954;2023-07-29T13:45:58;20.90;1.00
6270;DHT22;3168;51.684;6.954;2023-07-29T13:48:24;20.20;1.60
6270;DHT22;3168;51.684;6.954;2023-07-29T13:50:50;19.60;24.80
6270;DHT22;3168;51.684;6.954;2023-07-29T13:53:16;19.10;56.70
6270;DHT22;3168;51.684;6.954;2023-07-29T13:55:42;18.80;78.30
6270;DHT22;3168;51.684;6.954;2023-07-29T13:58:07;18.60;92.30
6270;DHT22;3168;51.684;6.954;2023-07-29T14:00:33;18.50;96.30
6270;DHT22;3168;51.684;6.954;2023-07-29T14:02:59;18.50;98.80
6270;DHT22;3168;51.684;6.954;2023-07-29T14:05:25;18.50;99.80
6270;DHT22;3168;51.684;6.954;2023-07-29T14:07:51;18.30;96.80
6270;DHT22;3168;51.684;6.954;2023-07-29T14:10:16;18.20;99.90
6270;DHT22;3168;51.684;6.954;2023-07-29T14:12:42;18.10;99.90
6270;DHT22;3168;51.684;6.954;2023-07-29T14:15:08;18.00;99.90
6270;DHT22;3168;51.684;6.954;2023-07-29T14:17:34;17.80;99.90
6270;DHT22;3168;51.684;6.954;2023-07-29T14:20:00;17.80;99.90
6270;DHT22;3168;51.684;6.954;2023-07-29T14:22:26;17.70;99.90
6270;DHT22;3168;51.684;6.954;2023-07-29T14:24:51;17.60;99.90
6270;DHT22;3168;51.684;6.954;2023-07-29T14:27:17;17.60;99.90
6270;DHT22;3168;51.684;6.954;2023-07-29T14:29:43;17.50;99.90
6270;DHT22;3168;51.684;6.954;2023-07-29T14:32:09;17.50;99.90
6270;DHT22;3168;51.684;6.954;2023-07-29T14:34:35;17.50;99.90
6270;DHT22;3168;51.684;6.954;2023-07-29T14:37:01;17.40;99.90
6270;DHT22;3168;51.684;6.954;2023-07-29T14:39:27;17.50;99.90
6270;DHT22;3168;51.684;6.954;2023-07-29T14:41:53;17.50;99.90
6270;DHT22;3168;51.684;6.954;2023-07-29T14:44:19;17.50;99.90
6270;DHT22;3168;51.684;6.954;2023-07-29T14:46:45;17.50;99.90
6270;DHT22;3168;51.684;6.954;2023-07-29T14:49:10;18.00;99.90
6270;DHT22;3168;51.684;6.954;2023-07-29T14:51:36;18.50;99.90
6270;DHT22;3168;51.684;6.954;2023-07-29T14:54:02;18.80;99.90
6270;DHT22;3168;51.684;6.954;2023-07-29T14:56:28;19.30;96.70
6270;DHT22;3168;51.684;6.954;2023-07-29T14:58:54;19.80;71.80
6270;DHT22;3168;51.684;6.954;2023-07-29T15:01:20;20.10;41.60
6270;DHT22;3168;51.684;6.954;2023-07-29T15:03:45;20.60;33.00
6270;DHT22;3168;51.684;6.954;2023-07-29T15:06:11;20.90;20.80
6270;DHT22;3168;51.684;6.954;2023-07-29T15:08:37;21.10;8.70
6270;DHT22;3168;51.684;6.954;2023-07-29T15:11:03;21.40;8.80
6270;DHT22;3168;51.684;6.954;2023-07-29T15:13:28;21.50;1.00
6270;DHT22;3168;51.684;6.954;2023-07-29T15:15:54;21.80;1.00
6270;DHT22;3168;51.684;6.954;2023-07-29T15:18:20;22.00;1.00
6270;DHT22;3168;51.684;6.954;2023-07-29T15:20:46;22.40;1.00
6270;DHT22;3168;51.684;6.954;2023-07-29T15:23:13;22.70;1.00
6270;DHT22;3168;51.684;6.954;2023-07-29T15:25:38;22.70;1.00
6270;DHT22;3168;51.684;6.954;2023-07-29T15:28:04;22.90;1.00
6270;DHT22;3168;51.684;6.954;2023-07-29T15:30:31;23.10;1.00
6270;DHT22;3168;51.684;6.954;2023-07-29T15:32:57;23.50;1.00
6270;DHT22;3168;51.684;6.954;2023-07-29T15:35:23;23.50;1.00
6270;DHT22;3168;51.684;6.954;2023-07-29T15:37:49;23.30;1.00
6270;DHT22;3168;51.684;6.954;2023-07-29T15:40:15;23.40;1.00
6270;DHT22;3168;51.684;6.954;2023-07-29T15:42:40;23.90;1.00
6270;DHT22;3168;51.684;6.954;2023-07-29T15:45:07;24.00;1.00
6270;DHT22;3168;51.684;6.954;2023-07-29T15:47:33;24.80;1.00
6270;DHT22;3168;51.684;6.954;2023-07-29T15:49:59;24.80;1.00
6270;DHT22;3168;51.684;6.954;2023-07-29T15:52:24;24.50;1.00
6270;DHT22;3168;51.684;6.954;2023-07-29T15:54:50;24.30;1.00
6270;DHT22;3168;51.684;6.954;2023-07-29T15:57:16;23.50;1.00
6270;DHT22;3168;51.684;6.954;2023-07-29T15:59:42;23.00;1.00
6270;DHT22;3168;51.684;6.954;2023-07-29T16:02:08;22.60;1.00
6270;DHT22;3168;51.684;6.954;2023-07-29T16:04:33;22.20;1.00
6270;DHT22;3168;51.684;6.954;2023-07-29T16:06:59;22.20;1.00
6270;DHT22;3168;51.684;6.954;2023-07-29T16:09:25;22.10;1.00
6270;DHT22;3168;51.684;6.954;2023-07-29T16:11:51;21.90;1.00